Time;durP1;ratioP1;P1;durP2;ratioP2;P2;SDS_P1;SDS_P2;PMS_P1;PMS_P2;Temp;Humidity;BMP_temperature;BMP_pressure;BME280_temperature;BME280_humidity;BME280_pressure;Samples;Min_cycle;Max_cycle;Signal;HPM_P1;HPM_P2
2021/12/05 00:22:24;;;;;;;18.50;14.20;;;3.10;99.90;;;3.79;100.00;96646.59;5254559;28;20218;-59
2021/12/05 00:25:05;;;;;;;12.27;11.07;;;3.00;99.90;;;3.71;100.00;96646.09;5255158;28;20202;-60
2021/12/05 00:27:44;;;;;;;6.97;5.77;;;3.00;99.90;;;3.73;100.00;96661.38;5258995;28;20199;-61
2021/12/05 00:30:44;;;;;;;6.20;4.13;;;3.00;99.90;;;3.71;100.00;96662.91;5260769;28;20212;-58
2021/12/05 00:33:36;;;;;;;4.73;4.07;;;2.90;99.90;;;3.69;100.00;96664.47;5261777;28;20215;-59
2021/12/05 00:39:37;;;;;;;4.03;3.63;;;2.90;99.90;;;3.65;100.00;96678.56;5263691;28;20688;-57
2021/12/05 00:42:44;;;;;;;6.00;4.10;;;2.80;99.90;;;3.65;100.00;96681.09;5268401;28;20221;-58
2021/12/05 00:48:38;;;;;;;10.30;4.27;;;2.80;99.90;;;3.87;100.00;96685.88;5246179;28;20201;-58
2021/12/05 01:00:08;;;;;;;6.30;4.30;;;2.90;99.90;;;3.78;100.00;96680.22;5244767;28;20206;-55
2021/12/05 01:03:03;;;;;;;7.90;4.47;;;3.00;99.90;;;3.92;100.00;96681.06;5277074;28;20691;-60
2021/12/05 01:08:43;;;;;;;4.47;3.70;;;3.10;99.90;;;3.99;100.00;96688.28;5281975;28;20195;-59
2021/12/05 01:11:33;;;;;;;5.77;5.27;;;3.10;99.90;;;4.02;100.00;96696.06;5268512;28;20223;-59
2021/12/05 01:14:22;;;;;;;5.37;4.97;;;3.10;99.90;;;4.02;100.00;96696.94;5280710;28;20199;-56
2021/12/05 01:16:56;;;;;;;5.33;4.27;;;3.10;99.90;;;4.07;100.00;96695.56;5273263;28;20280;-58
2021/12/05 01:19:32;;;;;;;6.03;5.47;;;3.20;99.90;;;3.95;100.00;96694.81;5280807;28;20705;-58
2021/12/05 01:22:12;;;;;;;6.47;4.97;;;3.20;99.90;;;4.00;100.00;96701.00;5278549;28;20253;-57
2021/12/05 01:24:57;;;;;;;5.30;3.87;;;3.10;99.90;;;4.07;100.00;96695.56;5279747;28;20203;-55
2021/12/05 01:27:39;;;;;;;6.77;5.50;;;3.10;99.90;;;4.14;100.00;96685.84;5281622;28;20221;-59
2021/12/05 01:30:24;;;;;;;6.80;4.60;;;3.10;99.90;;;4.12;100.00;96687.38;5272330;28;20199;-57
2021/12/05 01:33:04;;;;;;;6.87;4.33;;;3.10;99.90;;;4.19;100.00;96687.88;5279472;28;20282;-57
2021/12/05 01:38:38;;;;;;;4.53;3.87;;;3.10;99.90;;;3.98;100.00;96679.84;5274080;28;20228;-59
2021/12/05 01:47:41;;;;;;;5.57;4.30;;;3.00;99.90;;;3.84;100.00;96691.59;5272290;28;20673;-58
2021/12/05 01:53:28;;;;;;;4.87;3.50;;;2.90;99.90;;;3.79;100.00;96697.13;5240077;28;20188;-57
2021/12/05 02:02:03;;;;;;;4.83;4.00;;;3.00;99.90;;;3.89;100.00;96684.28;5278244;28;20216;-59
2021/12/05 02:36:53;;;;;;;3.70;3.40;;;3.10;99.90;;;3.90;100.00;96675.06;5255371;28;20221;-58
2021/12/05 02:42:28;;;;;;;3.67;3.37;;;3.00;99.90;;;3.80;100.00;96666.00;5259459;28;20219;-60
2021/12/05 02:45:08;;;;;;;4.17;3.77;;;3.00;99.90;;;3.83;100.00;96659.53;5264850;28;20196;-60
2021/12/05 02:47:47;;;;;;;3.57;3.27;;;3.00;99.90;;;3.76;100.00;96648.94;5254408;28;20206;-59
2021/12/05 02:50:25;;;;;;;3.47;3.27;;;2.90;99.90;;;3.70;100.00;96657.00;5256114;28;20202;-58
2021/12/05 02:53:08;;;;;;;4.20;3.57;;;2.90;99.90;;;3.68;100.00;96652.63;5261701;28;20199;-58
2021/12/05 02:55:44;;;;;;;5.77;3.30;;;2.80;99.90;;;3.65;100.00;96643.19;5261461;28;20219;-54
2021/12/05 02:58:27;;;;;;;4.40;3.37;;;2.90;99.90;;;3.68;100.00;96647.56;5267523;28;20200;-57
2021/12/05 03:01:10;;;;;;;4.07;3.67;;;2.90;99.90;;;3.76;100.00;96646.41;5262992;28;20227;-57
2021/12/05 03:03:43;;;;;;;4.03;3.43;;;2.90;99.90;;;3.67;100.00;96648.34;5260218;28;20199;-57
2021/12/05 03:06:23;;;;;;;3.97;3.60;;;2.80;99.90;;;3.60;100.00;96647.94;5261485;28;20199;-59
2021/12/05 03:09:00;;;;;;;4.63;3.43;;;2.80;99.90;;;3.56;100.00;96648.53;5269080;28;20198;-58
2021/12/05 03:11:38;;;;;;;4.10;3.03;;;2.80;99.90;;;3.50;100.00;96647.28;5258354;28;20218;-58
2021/12/05 03:14:12;;;;;;;4.13;3.47;;;2.70;99.90;;;3.48;100.00;96637.06;5257250;28;20202;-56
2021/12/05 03:16:46;;;;;;;5.07;3.80;;;2.70;99.90;;;3.48;100.00;96637.06;5259881;28;20254;-54
2021/12/05 03:19:20;;;;;;;4.97;3.70;;;2.70;99.90;;;3.48;100.00;96647.16;5254346;28;20207;-56
2021/12/05 03:21:54;;;;;;;5.97;4.07;;;2.70;99.90;;;3.52;100.00;96644.06;5259575;28;20640;-56
2021/12/05 03:24:29;;;;;;;4.63;3.63;;;2.70;99.90;;;3.55;100.00;96641.75;5258060;28;20207;-56
2021/12/05 03:27:05;;;;;;;5.07;3.37;;;2.70;99.90;;;3.56;100.00;96635.91;5262975;28;20201;-56
2021/12/05 03:29:38;;;;;;;4.10;3.77;;;2.80;99.90;;;3.52;100.00;96635.59;5254000;28;20277;-53
2021/12/05 03:32:11;;;;;;;3.73;3.20;;;2.70;99.90;;;3.46;100.00;96636.06;5250655;28;20216;-53
2021/12/05 03:34:44;;;;;;;5.00;3.60;;;2.60;99.90;;;3.44;100.00;96637.66;5259493;28;20199;-57
2021/12/05 03:37:18;;;;;;;4.00;3.60;;;2.60;99.90;;;3.44;100.00;96632.59;5266687;28;20599;-57
2021/12/05 03:39:51;;;;;;;5.27;3.93;;;2.60;99.90;;;3.44;100.00;96637.66;5267278;28;20466;-53
2021/12/05 03:42:25;;;;;;;4.03;3.73;;;2.60;99.90;;;3.49;100.00;96636.28;5262486;28;20234;-57
2021/12/05 03:44:59;;;;;;;6.40;3.70;;;2.60;99.90;;;3.48;100.00;96634.53;5249435;28;20705;-54
2021/12/05 03:47:32;;;;;;;3.83;3.53;;;2.60;99.90;;;3.55;100.00;96640.88;5255315;28;20193;-55
2021/12/05 03:50:07;;;;;;;5.40;3.83;;;2.60;99.90;;;3.44;100.00;96642.69;5259719;28;20203;-54
2021/12/05 03:52:41;;;;;;;4.97;3.73;;;2.60;99.90;;;3.37;100.00;96638.88;5261948;28;20195;-56
2021/12/05 03:55:15;;;;;;;4.43;3.53;;;2.60;99.90;;;3.39;100.00;96636.47;5250096;28;20242;-53
2021/12/05 03:57:50;;;;;;;4.30;3.90;;;2.60;99.90;;;3.37;100.00;96638.00;5257747;28;20584;-55
2021/12/05 04:00:29;;;;;;;7.63;3.40;;;2.60;99.90;;;3.43;100.00;96648.50;5263215;28;21428;-56
2021/12/05 04:03:08;;;;;;;4.93;3.40;;;2.50;99.90;;;3.35;100.00;96647.16;5265712;28;20301;-56
2021/12/05 04:05:42;;;;;;;5.13;3.50;;;2.50;99.90;;;3.36;100.00;96641.31;5260485;28;20223;-53
2021/12/05 04:08:18;;;;;;;6.57;3.63;;;2.50;99.90;;;3.38;100.00;96637.25;5258410;28;20600;-53
2021/12/05 04:10:56;;;;;;;3.73;3.20;;;2.50;99.90;;;3.39;100.00;96628.91;5251923;28;20594;-58
2021/12/05 04:13:32;;;;;;;4.20;3.07;;;2.60;99.90;;;3.42;100.00;96634.13;5267831;28;20200;-56
2021/12/05 04:16:07;;;;;;;4.23;3.53;;;2.60;99.90;;;3.40;100.00;96643.25;5252367;28;20614;-53
2021/12/05 04:18:41;;;;;;;4.37;3.97;;;2.60;99.90;;;3.42;100.00;96639.19;5260692;28;20700;-55
2021/12/05 04:21:16;;;;;;;4.63;3.23;;;2.60;99.90;;;3.44;100.00;96642.69;5259027;28;20216;-56
2021/12/05 04:23:49;;;;;;;5.40;3.63;;;2.60;99.90;;;3.46;100.00;96638.59;5252513;28;20197;-61
2021/12/05 04:26:23;;;;;;;4.07;3.70;;;2.70;99.90;;;3.47;100.00;96637.84;5254115;28;20569;-56
2021/12/05 04:28:58;;;;;;;9.10;3.30;;;2.70;99.90;;;3.50;100.00;96647.28;5265553;28;20286;-61
2021/12/05 04:31:31;;;;;;;7.93;5.03;;;2.70;99.90;;;3.50;100.00;96648.13;5262061;28;20226;-59
2021/12/05 04:34:05;;;;;;;10.93;8.10;;;2.70;99.90;;;3.47;100.00;96640.38;5262100;28;20631;-57
2021/12/05 04:36:38;;;;;;;10.13;7.03;;;2.70;99.90;;;3.47;100.00;96642.03;5260113;28;20225;-57
2021/12/05 04:39:13;;;;;;;8.20;5.57;;;2.70;99.90;;;3.44;100.00;96641.84;5260207;28;20205;-60
2021/12/05 04:41:46;;;;;;;5.47;4.70;;;2.60;99.90;;;3.44;100.00;96649.41;5259441;28;20244;-56
2021/12/05 04:44:22;;;;;;;5.57;4.47;;;2.60;99.90;;;3.46;100.00;96646.19;5267318;28;20199;-58
2021/12/05 04:46:57;;;;;;;5.07;4.20;;;2.60;99.90;;;3.41;100.00;96650.09;5257712;28;20199;-60
2021/12/05 04:49:30;;;;;;;4.47;4.17;;;2.60;99.90;;;3.49;100.00;96653.97;5254556;28;20202;-59
2021/12/05 04:52:04;;;;;;;4.10;3.63;;;2.60;99.90;;;3.46;100.00;96648.69;5261662;28;20276;-56
2021/12/05 04:54:38;;;;;;;4.03;3.67;;;2.70;99.90;;;3.50;100.00;96659.91;5259949;28;20198;-59
2021/12/05 04:57:11;;;;;;;7.47;3.97;;;2.60;99.90;;;3.51;100.00;96654.06;5255640;28;20222;-59
2021/12/05 04:59:49;;;;;;;6.50;3.70;;;2.60;99.90;;;3.37;100.00;96661.59;5258335;28;20202;-60
2021/12/05 05:02:23;;;;;;;3.87;3.10;;;2.60;99.90;;;3.41;100.00;96657.66;5255680;28;20227;-60
2021/12/05 05:04:56;;;;;;;4.47;3.70;;;2.60;99.90;;;3.42;100.00;96651.81;5261800;28;20693;-58
2021/12/05 05:07:30;;;;;;;6.80;4.00;;;2.60;99.90;;;3.44;100.00;96656.97;5263852;28;20199;-59
2021/12/05 05:10:09;;;;;;;5.87;5.33;;;2.70;99.90;;;3.48;100.00;96663.97;5266289;28;20191;-60
2021/12/05 05:12:42;;;;;;;12.37;9.43;;;2.60;99.90;;;3.46;100.00;96666.38;5254568;28;20223;-57
2021/12/05 05:15:22;;;;;;;6.17;3.80;;;2.60;99.90;;;3.37;100.00;96664.13;5259745;28;20580;-58
2021/12/05 05:17:56;;;;;;;5.60;3.87;;;2.60;99.90;;;3.36;100.00;96664.06;5252582;28;20231;-58
2021/12/05 05:20:35;;;;;;;3.90;3.60;;;2.60;99.90;;;3.37;100.00;96660.75;5256347;28;20242;-58
2021/12/05 05:23:29;;;;;;;4.10;3.73;;;2.60;99.90;;;3.39;100.00;96659.19;5260777;28;20203;-60
2021/12/05 05:40:41;;;;;;;4.80;3.70;;;2.50;99.90;;;3.31;100.00;96665.41;5263817;28;20216;-60
2021/12/05 05:43:27;;;;;;;6.70;3.80;;;2.50;99.90;;;3.31;100.00;96686.47;5260843;28;20201;-62
2021/12/05 05:46:10;;;;;;;4.83;3.60;;;2.60;99.90;;;3.34;100.00;96683.28;5263873;28;20203;-62
2021/12/05 05:48:51;;;;;;;5.20;3.80;;;2.60;99.90;;;3.38;100.00;96685.25;5262795;28;20207;-60
2021/12/05 05:51:24;;;;;;;4.40;3.90;;;2.60;99.90;;;3.44;100.00;96682.25;5266151;28;20215;-61
2021/12/05 05:53:57;;;;;;;4.77;3.90;;;2.70;99.90;;;3.47;100.00;96672.34;5265742;28;20199;-62
2021/12/05 05:56:32;;;;;;;4.77;4.47;;;2.60;99.90;;;3.43;100.00;96677.94;5268596;28;20556;-60
2021/12/05 05:59:12;;;;;;;6.60;4.23;;;2.60;99.90;;;3.39;100.00;96676.88;5267826;28;20219;-58
2021/12/05 06:03:18;;;;;;;5.10;4.50;;;2.60;99.90;;;3.38;100.00;96675.13;5267232;28;20680;-58
2021/12/05 06:04:53;;;;;;;8.77;4.60;;;2.60;99.90;;;3.38;100.00;96672.63;5260708;28;20548;-62
2021/12/05 06:07:26;;;;;;;5.00;4.50;;;2.60;99.90;;;3.41;100.00;96680.38;5268333;28;20673;-59
2021/12/05 06:09:59;;;;;;;5.80;4.03;;;2.60;99.90;;;3.42;100.00;96684.66;5269572;28;20211;-61
2021/12/05 06:12:33;;;;;;;6.17;4.43;;;2.60;99.90;;;3.41;100.00;96682.03;5254473;28;20225;-62
2021/12/05 06:15:08;;;;;;;5.60;4.20;;;2.60;99.90;;;3.38;100.00;96678.53;5257925;28;20301;-61
2021/12/05 06:17:42;;;;;;;5.07;4.67;;;2.60;99.90;;;3.35;100.00;96683.38;5262587;28;20218;-62
2021/12/05 06:20:21;;;;;;;4.97;4.63;;;2.60;99.90;;;3.30;100.00;96678.81;5264800;28;20581;-59
2021/12/05 06:22:56;;;;;;;4.63;4.07;;;2.50;99.90;;;3.29;100.00;96685.50;5270479;28;20282;-59
2021/12/05 06:25:34;;;;;;;6.37;4.70;;;2.50;99.90;;;3.20;100.00;96686.53;5264497;28;20198;-61
2021/12/05 06:28:11;;;;;;;5.17;4.67;;;2.40;99.90;;;3.23;100.00;96691.78;5263432;28;20195;-61
2021/12/05 06:30:52;;;;;;;4.87;4.33;;;2.40;99.90;;;3.24;100.00;96699.47;5262065;28;20300;-60
2021/12/05 06:39:23;;;;;;;10.07;5.73;;;2.50;99.90;;;3.21;100.00;96689.19;5269299;28;20221;-59
2021/12/05 06:42:08;;;;;;;7.03;5.73;;;2.50;99.90;;;3.24;100.00;96699.47;5264628;28;20217;-59
2021/12/05 06:47:32;;;;;;;6.63;5.30;;;2.40;99.90;;;3.26;100.00;96697.03;5256776;28;20217;-58
2021/12/05 06:50:06;;;;;;;5.47;5.07;;;2.40;99.90;;;3.21;100.00;96709.38;5258186;28;20198;-60
2021/12/05 06:52:48;;;;;;;6.20;5.70;;;2.40;99.90;;;3.20;100.00;96707.59;5264759;28;20249;-61
2021/12/05 06:55:21;;;;;;;7.47;5.33;;;2.40;99.90;;;3.16;100.00;96704.00;5259355;28;20297;-61
2021/12/05 06:57:54;;;;;;;6.17;5.70;;;2.30;99.90;;;3.06;100.00;96706.72;5262066;28;20219;-59
2021/12/05 07:00:30;;;;;;;5.93;5.33;;;2.30;99.90;;;2.98;100.00;96705.31;5260905;28;20237;-59
2021/12/05 07:03:03;;;;;;;6.27;5.70;;;2.20;99.90;;;2.96;100.00;96706.84;5260725;28;20251;-61
2021/12/05 07:05:54;;;;;;;5.40;4.90;;;2.10;99.90;;;2.96;100.00;96706.84;5261779;28;20297;-58
2021/12/05 07:08:32;;;;;;;5.33;4.83;;;2.10;99.90;;;2.93;100.00;96714.22;5260448;28;20569;-58
2021/12/05 07:11:13;;;;;;;6.13;5.47;;;2.10;99.90;;;2.95;100.00;96717.75;5259431;28;20237;-62
2021/12/05 07:16:42;;;;;;;5.43;5.03;;;2.10;99.90;;;2.90;100.00;96721.59;5258395;28;20284;-60
2021/12/05 07:19:28;;;;;;;6.00;5.13;;;2.10;99.90;;;2.89;100.00;96727.38;5263930;28;20244;-59
2021/12/05 07:22:13;;;;;;;7.97;5.47;;;2.10;99.90;;;2.90;100.00;96732.56;5261580;28;20306;-60
2021/12/05 07:24:52;;;;;;;5.57;5.07;;;2.20;99.90;;;2.86;100.00;96729.72;5253631;28;20701;-61
2021/12/05 07:41:53;;;;;;;7.30;6.13;;;2.10;99.90;;;2.96;100.00;96714.44;5261421;28;20316;-58
2021/12/05 07:44:26;;;;;;;5.93;5.53;;;2.20;99.90;;;3.00;100.00;96716.38;5259966;28;20203;-61
2021/12/05 07:46:59;;;;;;;5.47;5.07;;;2.20;99.90;;;3.04;100.00;96714.94;5257818;28;20566;-60
2021/12/05 07:49:33;;;;;;;6.80;4.83;;;2.30;99.90;;;3.08;100.00;96714.38;5255176;28;20200;-61
2021/12/05 07:52:07;;;;;;;7.77;4.63;;;2.40;99.90;;;3.07;100.00;96718.56;5266856;28;20222;-62
2021/12/05 07:54:44;;;;;;;5.60;5.17;;;2.30;99.90;;;2.93;100.00;96717.63;5260731;28;20211;-62
2021/12/05 07:57:23;;;;;;;6.13;5.47;;;2.20;99.90;;;2.99;100.00;96716.28;5262218;28;20189;-62
2021/12/05 08:00:08;;;;;;;6.53;5.90;;;2.20;99.90;;;2.96;100.00;96711.91;5263244;28;20227;-62
2021/12/05 08:14:33;;;;;;;4.90;4.37;;;2.10;99.90;;;2.91;100.00;96733.41;5263309;28;20671;-62
2021/12/05 08:17:13;;;;;;;4.20;3.90;;;2.20;99.90;;;2.95;100.00;96730.34;5247382;28;20298;-62
2021/12/05 08:19:48;;;;;;;4.17;3.77;;;2.20;99.90;;;3.00;100.00;96738.22;5250492;28;20863;-62
2021/12/05 08:22:21;;;;;;;7.57;6.93;;;2.20;99.90;;;3.07;100.00;96741.28;5251464;28;20302;-62
2021/12/05 08:24:54;;;;;;;8.43;7.60;;;2.20;99.90;;;3.07;100.00;96738.75;5245961;28;20200;-62
2021/12/05 08:27:27;;;;;;;9.40;8.60;;;2.20;99.90;;;3.07;100.00;96733.69;5246824;28;20210;-61
2021/12/05 08:30:08;;;;;;;7.70;6.87;;;2.20;99.90;;;3.08;100.00;96727.00;5247063;28;20203;-62
2021/12/05 08:32:56;;;;;;;8.70;7.87;;;2.20;99.90;;;3.09;100.00;96723.69;5265109;28;20303;-62
2021/12/05 08:35:50;;;;;;;9.87;8.97;;;2.20;99.90;;;2.71;100.00;96720.31;5267378;28;20694;-62
2021/12/05 09:24:43;;;;;;;11.07;10.07;;;3.40;99.90;;;4.23;100.00;96711.69;5260394;28;20335;-61
2021/12/05 09:27:45;;;;;;;18.40;16.70;;;3.40;99.90;;;4.46;100.00;96711.47;5264291;28;20202;-62
2021/12/05 09:30:50;;;;;;;34.97;32.00;;;3.50;99.90;;;4.64;100.00;96711.72;5256163;28;20304;-62
2021/12/05 09:51:22;;;;;;;18.57;16.80;;;3.80;99.90;;;4.94;100.00;96700.03;5259472;28;20334;-62
2021/12/05 10:02:48;;;;;;;13.43;12.30;;;4.00;99.90;;;4.99;100.00;96697.78;5254772;28;20202;-63
2021/12/05 10:11:22;;;;;;;13.77;12.57;;;4.10;99.90;;;5.12;100.00;96701.91;5262468;28;20212;-61
2021/12/05 10:14:13;;;;;;;11.93;10.93;;;4.10;99.90;;;5.18;100.00;96699.75;5255578;28;20591;-62
2021/12/05 10:17:00;;;;;;;21.27;19.23;;;4.20;99.90;;;5.25;100.00;96693.38;5257295;28;20250;-62
2021/12/05 10:34:24;;;;;;;9.07;8.10;;;4.80;99.90;;;5.90;100.00;96672.56;5263877;28;20208;-62
2021/12/05 10:37:10;;;;;;;7.20;6.50;;;5.00;99.90;;;6.02;100.00;96660.59;5256640;28;20196;-62
2021/12/05 10:39:43;;;;;;;6.07;5.53;;;5.10;99.90;;;6.07;100.00;96660.06;5264481;28;20210;-61
2021/12/05 10:42:38;;;;;;;4.33;3.93;;;5.20;99.90;;;6.19;100.00;96656.44;5258477;28;20500;-61
2021/12/05 10:45:30;;;;;;;4.40;4.00;;;5.40;99.90;;;6.37;100.00;96656.56;5261946;28;20555;-61
2021/12/05 10:48:10;;;;;;;3.90;3.53;;;5.50;99.90;;;6.42;98.42;96655.13;5255355;28;20196;-61
2021/12/05 10:50:47;;;;;;;5.43;4.00;;;5.60;99.90;;;6.51;99.44;96658.16;5260991;28;20311;-59
2021/12/05 10:53:35;;;;;;;3.73;3.43;;;5.80;99.90;;;6.54;95.33;96658.31;5263320;28;20643;-61
2021/12/05 10:56:16;;;;;;;3.53;3.23;;;5.80;99.90;;;6.58;96.35;96651.72;5264412;28;20211;-61
2021/12/05 10:58:56;;;;;;;3.90;3.50;;;5.80;99.90;;;6.55;90.19;96652.44;5263149;28;20200;-60
2021/12/05 11:01:35;;;;;;;4.23;3.13;;;5.80;99.90;;;6.61;93.13;96657.88;5263209;28;20581;-61
2021/12/05 11:04:15;;;;;;;4.20;3.53;;;5.80;99.90;;;6.64;90.29;96662.19;5255871;28;20205;-61
2021/12/05 11:06:53;;;;;;;4.90;3.13;;;5.90;99.90;;;6.82;94.04;96662.31;5261382;28;20199;-61
2021/12/05 11:09:29;;;;;;;3.20;2.97;;;6.10;99.90;;;6.76;90.52;96663.75;5262636;28;20202;-61
2021/12/05 11:12:08;;;;;;;2.93;2.70;;;6.10;99.90;;;6.83;90.37;96664.06;5264826;28;20227;-60
2021/12/05 11:14:44;;;;;;;3.47;3.17;;;6.00;99.90;;;6.81;90.98;96660.53;5259893;28;20207;-62
2021/12/05 11:17:19;;;;;;;3.50;3.20;;;6.00;99.90;;;6.82;89.41;96657.25;5260167;28;20196;-61
2021/12/05 11:19:57;;;;;;;6.03;3.17;;;6.00;99.90;;;6.81;89.85;96660.53;5255239;28;20206;-62
2021/12/05 11:22:36;;;;;;;3.87;2.80;;;6.00;99.90;;;6.88;89.50;96652.47;5262515;28;20211;-63
2021/12/05 11:25:14;;;;;;;2.60;2.20;;;6.10;99.90;;;6.96;92.89;96656.28;5260816;28;20202;-64
2021/12/05 11:27:49;;;;;;;3.60;2.40;;;6.10;99.90;;;6.97;91.37;96648.72;5260356;28;20204;-63
2021/12/05 11:30:30;;;;;;;4.60;2.53;;;6.20;99.90;;;7.12;89.17;96647.75;5260490;28;20203;-62
2021/12/05 11:33:08;;;;;;;2.43;2.27;;;6.30;99.90;;;7.15;90.02;96647.91;5259839;28;20283;-62
2021/12/05 11:35:47;;;;;;;3.70;2.77;;;6.20;99.90;;;7.05;87.79;96644.03;5258732;28;20196;-63
2021/12/05 11:38:22;;;;;;;3.17;2.30;;;6.10;99.90;;;6.93;86.36;96643.44;5256755;28;20686;-63
2021/12/05 11:40:59;;;;;;;3.23;2.60;;;6.10;99.90;;;6.77;87.06;96649.38;5259898;28;20718;-62
2021/12/05 11:43:36;;;;;;;2.73;2.43;;;6.00;99.90;;;6.70;86.05;96649.84;5265538;28;20275;-62
2021/12/05 11:46:13;;;;;;;3.20;2.50;;;5.90;99.90;;;6.67;87.36;96642.09;5264410;28;20196;-60
2021/12/05 11:48:50;;;;;;;2.80;2.70;;;5.90;99.90;;;6.77;91.97;96644.28;5265090;28;20234;-62
2021/12/05 11:51:33;;;;;;;2.90;2.70;;;6.00;99.90;;;6.71;91.34;96647.38;5263340;28;20211;-62
2021/12/05 11:54:09;;;;;;;3.03;2.77;;;5.90;99.90;;;6.71;89.71;96649.06;5255749;28;20197;-62
2021/12/05 11:56:52;;;;;;;2.83;2.63;;;5.80;99.90;;;6.65;89.16;96638.59;5265315;28;20203;-63
2021/12/05 11:59:30;;;;;;;2.63;2.53;;;5.80;99.90;;;6.63;92.61;96646.09;5263705;28;20192;-62
2021/12/05 12:02:09;;;;;;;3.07;2.70;;;5.80;99.90;;;6.63;92.07;96638.50;5257127;28;20687;-62
2021/12/05 12:04:51;;;;;;;3.00;2.60;;;5.80;99.90;;;6.72;93.86;96635.56;5265341;28;20202;-62
2021/12/05 12:07:34;;;;;;;2.90;2.70;;;5.90;99.90;;;6.73;91.91;96643.25;5261550;28;20200;-62
2021/12/05 12:10:13;;;;;;;2.47;2.27;;;5.90;99.90;;;6.76;93.76;96643.41;5263236;28;20534;-62
2021/12/05 12:12:53;;;;;;;2.80;2.37;;;5.90;99.90;;;6.81;94.48;96635.16;5261488;28;20639;-62
2021/12/05 12:15:29;;;;;;;2.60;2.40;;;6.00;99.90;;;6.84;90.87;96637.84;5262011;28;20207;-62
2021/12/05 12:18:09;;;;;;;2.83;2.63;;;5.90;99.90;;;6.88;92.14;96642.31;5263765;28;20195;-62
2021/12/05 12:20:46;;;;;;;2.73;2.53;;;5.90;99.90;;;6.82;87.63;96635.25;5261678;28;20226;-62
2021/12/05 12:23:22;;;;;;;2.60;2.40;;;6.00;99.90;;;6.91;89.25;96643.34;5263263;28;20206;-62
2021/12/05 12:25:59;;;;;;;2.80;2.70;;;6.00;99.90;;;6.93;89.07;96640.88;5262605;28;20670;-62
2021/12/05 12:28:33;;;;;;;2.40;2.20;;;5.90;99.90;;;6.84;88.95;96638.75;5263251;28;20227;-62
2021/12/05 12:31:12;;;;;;;3.00;2.70;;;5.80;99.90;;;6.83;91.58;96642.06;5264338;28;20208;-63
2021/12/05 12:33:50;;;;;;;3.53;2.47;;;5.80;99.90;;;6.76;90.15;96645.97;5260366;28;21168;-62
2021/12/05 12:36:39;;;;;;;3.30;2.90;;;5.80;99.90;;;6.75;90.70;96634.06;5260604;28;20202;-62
2021/12/05 12:39:33;;;;;;;3.17;2.97;;;5.80;99.90;;;6.74;90.92;96632.31;5259341;28;20198;-62
2021/12/05 12:42:18;;;;;;;2.83;2.73;;;5.90;99.90;;;6.80;94.05;96636.81;5259422;28;20224;-61
2021/12/05 12:45:13;;;;;;;4.70;3.03;;;5.90;99.90;;;6.81;93.62;96625.91;5261835;28;20698;-61
2021/12/05 12:47:53;;;;;;;2.60;2.40;;;5.90;99.90;;;6.88;94.60;96634.69;5259304;28;20683;-62
2021/12/05 12:50:35;;;;;;;2.97;2.77;;;5.90;99.90;;;6.91;93.90;96633.16;5261136;28;20219;-62
2021/12/05 12:53:17;;;;;;;4.33;4.03;;;5.90;99.90;;;6.84;92.64;96627.69;5261223;28;20198;-62
2021/12/05 12:55:57;;;;;;;5.17;4.67;;;5.90;99.90;;;6.84;94.19;96630.22;5260285;28;20212;-62
2021/12/05 12:58:44;;;;;;;6.73;5.23;;;5.90;99.90;;;6.80;93.51;96633.41;5260152;28;20202;-61
2021/12/05 13:01:38;;;;;;;4.27;3.87;;;5.90;99.90;;;6.76;93.96;96638.34;5264097;28;20247;-62
2021/12/05 13:04:36;;;;;;;3.53;3.23;;;5.80;99.90;;;6.72;94.48;96635.56;5260304;28;20195;-68
2021/12/05 13:07:22;;;;;;;3.73;3.37;;;5.80;99.90;;;6.69;96.72;96637.94;5261210;28;20200;-62
2021/12/05 13:10:05;;;;;;;3.90;3.53;;;5.80;99.90;;;6.66;97.10;96641.19;5258693;28;20199;-62
2021/12/05 13:13:02;;;;;;;3.60;3.30;;;5.70;99.90;;;6.63;98.06;96646.09;5262507;28;20215;-62
2021/12/05 13:15:42;;;;;;;4.37;3.97;;;5.70;99.90;;;6.57;97.00;96648.31;5257010;28;20200;-62
2021/12/05 13:18:28;;;;;;;6.50;6.00;;;5.70;99.90;;;6.51;97.93;96650.53;5260002;28;20294;-62
2021/12/05 13:21:09;;;;;;;6.53;5.93;;;5.70;99.90;;;6.45;98.83;96647.69;5256947;28;20322;-62
2021/12/05 13:23:47;;;;;;;5.37;4.87;;;5.60;99.90;;;6.32;99.13;96649.59;5257127;28;20202;-58
2021/12/05 13:26:26;;;;;;;4.47;4.00;;;5.50;99.90;;;6.28;100.00;96652.72;5259108;28;20294;-61
2021/12/05 13:29:14;;;;;;;3.90;3.60;;;5.50;99.90;;;6.27;100.00;96658.59;5262741;28;20192;-60
2021/12/05 13:31:53;;;;;;;5.70;3.83;;;5.60;99.90;;;6.30;100.00;96660.44;5261255;28;20683;-60
2021/12/05 13:34:36;;;;;;;3.63;3.40;;;5.50;99.90;;;6.21;100.00;96659.91;5259603;28;20204;-61
2021/12/05 13:37:37;;;;;;;3.40;3.10;;;5.50;99.90;;;6.17;100.00;96658.03;5258760;28;20317;-59
2021/12/05 13:40:22;;;;;;;2.97;2.77;;;5.50;99.90;;;6.18;100.00;96664.81;5261422;28;20211;-61
2021/12/05 13:43:03;;;;;;;3.30;3.10;;;5.50;99.90;;;6.18;100.00;96664.81;5261346;28;20193;-58
2021/12/05 13:45:43;;;;;;;4.17;3.87;;;5.40;99.90;;;6.14;100.00;96673.06;5261586;28;20799;-60
2021/12/05 13:48:25;;;;;;;4.20;2.90;;;5.40;99.90;;;6.12;99.71;96670.44;5257192;28;20191;-62
2021/12/05 13:51:01;;;;;;;2.73;2.53;;;5.20;99.90;;;5.93;96.46;96672.75;5258833;28;20238;-59
2021/12/05 13:53:55;;;;;;;3.30;3.00;;;5.10;99.90;;;5.75;98.19;96672.56;5254903;28;20237;-58
2021/12/05 13:56:33;;;;;;;2.87;2.77;;;5.00;99.90;;;5.69;100.00;96668.03;5260688;28;20211;-58
2021/12/05 13:59:07;;;;;;;2.57;2.37;;;5.10;99.90;;;5.69;100.00;96673.09;5258218;28;20568;-58
2021/12/05 14:01:49;;;;;;;2.87;2.63;;;5.10;99.90;;;5.74;100.00;96676.78;5259954;28;20609;-60
2021/12/05 14:04:29;;;;;;;3.60;3.00;;;5.10;99.90;;;5.78;100.00;96678.72;5257060;28;20242;-60
2021/12/05 14:07:05;;;;;;;3.57;3.30;;;5.10;99.90;;;5.79;100.00;96675.38;5265345;28;20200;-59
2021/12/05 14:09:43;;;;;;;3.57;3.27;;;5.20;99.90;;;5.77;100.00;96676.94;5260752;28;20575;-61
2021/12/05 14:12:18;;;;;;;4.20;3.90;;;5.10;99.90;;;5.74;100.00;96679.31;5265468;28;20211;-59
2021/12/05 14:14:54;;;;;;;3.93;3.70;;;5.10;99.90;;;5.73;100.00;96682.63;5262547;28;20208;-59
2021/12/05 14:17:32;;;;;;;4.87;4.43;;;5.10;99.90;;;5.73;100.00;96685.19;5256967;28;20586;-61
2021/12/05 14:20:10;;;;;;;4.13;3.80;;;5.10;99.90;;;5.72;100.00;96690.16;5259038;28;20288;-59
2021/12/05 14:22:46;;;;;;;4.40;4.10;;;5.10;99.90;;;5.74;100.00;96689.44;5258645;28;20207;-60
2021/12/05 14:25:23;;;;;;;6.77;6.17;;;5.10;99.90;;;5.77;100.00;96691.28;5254051;28;20196;-60
2021/12/05 14:28:02;;;;;;;4.53;4.23;;;5.20;99.90;;;5.77;100.00;96697.22;5251860;28;20206;-58
2021/12/05 14:30:35;;;;;;;3.97;3.77;;;5.10;99.90;;;5.83;100.00;96701.75;5256080;28;20303;-59
2021/12/05 14:33:10;;;;;;;4.50;4.20;;;5.20;99.90;;;5.84;100.00;96701.00;5255452;28;20573;-62
2021/12/05 14:35:44;;;;;;;4.60;4.30;;;5.20;99.90;;;5.84;100.00;96709.47;5254045;28;20563;-62
2021/12/05 14:38:17;;;;;;;3.77;3.53;;;5.20;99.90;;;5.85;100.00;96707.81;5261022;28;20737;-62
2021/12/05 14:40:50;;;;;;;5.47;4.23;;;5.20;99.90;;;5.86;100.00;96705.34;5253803;28;20227;-61
2021/12/05 14:43:23;;;;;;;5.50;4.80;;;5.20;99.90;;;5.84;100.00;96704.41;5256938;28;20689;-62
2021/12/05 14:46:02;;;;;;;5.43;4.77;;;5.10;99.90;;;5.83;100.00;96699.22;5249930;28;20281;-60
2021/12/05 14:48:36;;;;;;;6.10;5.50;;;5.10;99.90;;;5.65;100.00;96697.41;5250418;28;20291;-59
2021/12/05 14:51:11;;;;;;;6.10;5.60;;;4.90;99.90;;;5.57;100.00;96707.91;5249156;28;20207;-61
2021/12/05 14:53:44;;;;;;;5.83;5.33;;;4.90;99.90;;;5.58;100.00;96714.69;5261101;28;20196;-62
2021/12/05 14:56:28;;;;;;;6.07;5.57;;;4.90;99.90;;;5.55;100.00;96710.34;5263955;28;20216;-62
2021/12/05 14:59:09;;;;;;;6.23;5.73;;;4.90;99.90;;;5.54;100.00;96715.31;5249534;28;20196;-62
2021/12/05 15:01:47;;;;;;;6.57;6.07;;;4.80;99.90;;;5.53;100.00;96716.13;5250877;28;20624;-61
2021/12/05 15:04:28;;;;;;;6.73;6.10;;;4.80;99.90;;;5.53;100.00;96718.66;5247181;28;20671;-62
2021/12/05 15:07:02;;;;;;;5.73;5.30;;;4.80;99.90;;;5.50;100.00;96726.94;5249646;28;20208;-61
2021/12/05 15:09:40;;;;;;;5.37;4.87;;;4.80;99.90;;;5.49;100.00;96729.38;5249466;28;20295;-62
2021/12/05 15:12:18;;;;;;;6.07;5.57;;;4.70;99.90;;;5.37;100.00;96732.94;5245285;28;20224;-62
2021/12/05 15:14:54;;;;;;;7.00;6.50;;;4.60;99.90;;;5.32;100.00;96736.91;5249777;28;20200;-61
2021/12/05 15:17:30;;;;;;;6.67;6.00;;;4.60;99.90;;;5.23;100.00;96741.41;5252201;28;20200;-61